»·PEaware :: AAL1524 KPHX-KSAN

AAL1524 :: KPHX-KSAN

FLIGHT INFORMATION

Flight Status: Arrived
Operator:
American Airlines
More flights by this operator :: More flights under this callsign
Pilot: Matteo Spacca (9898)
Aircraft: AIRBUS A320
(A320)
More flights by this aircraft type
Origin: KPHX Phoenix Sky Harbor Intl
United States
Destination: KSAN San Diego Intl-Lindbergh
United States
More flights between these airports :: More routes between these airports
Route: +JUDTH5 MOHAK J2 HOGGZ LUCKI1
File this flight plan on PilotEdge
Remarks:
Altitude:
(Current/Filed)
32,000ft
Speed:
(Current/Filed)
450kts
Departed: 10-Jan-17 12:40 PM
Arrived: 10-Jan-17 01:36 PM
Distance/Time
Traveled:
264nm/0:55
Distance/Time
To Go:
Arrived

Flight Plot

Page will automatically refresh every two minutes.


Map Options




Map Legend


Flown Route
Filed Route
Departure Airport
Arrival Airport
Navaid (VOR, NDB)
Fix

Horizontal Profiles

Position Reports

Time Latitude Longitude Heading Altitude Ground
Speed
10-Jan-17 12:18 33.437757 -111.997381 88 1149ft 0kts
10-Jan-17 12:19 33.437757 -111.997381 88 1149ft 0kts
10-Jan-17 12:20 33.437757 -111.997381 88 1149ft 0kts
10-Jan-17 12:21 33.437757 -111.997381 88 1149ft 0kts
10-Jan-17 12:22 33.437757 -111.997381 88 1149ft 0kts
10-Jan-17 12:23 33.437757 -111.997381 88 1149ft 0kts
10-Jan-17 12:24 33.437757 -111.997381 88 1149ft 0kts
10-Jan-17 12:25 33.437757 -111.997381 88 1149ft 0kts
10-Jan-17 12:26 33.437757 -111.997381 88 1149ft 0kts
10-Jan-17 12:27 33.437757 -111.997381 88 1149ft 0kts
10-Jan-17 12:28 33.437757 -111.997381 88 1149ft 0kts
10-Jan-17 12:29 33.437757 -111.997381 88 1149ft 0kts
10-Jan-17 12:30 33.437757 -111.997381 88 1149ft 0kts
10-Jan-17 12:31 33.437748 -111.998016 88 1149ft 0kts
10-Jan-17 12:32 33.437748 -111.998011 88 1149ft 0kts
10-Jan-17 12:33 33.438387 -111.997821 1 1149ft 1kts
10-Jan-17 12:34 33.439368 -112.000789 325 1149ft 18kts
10-Jan-17 12:35 33.439702 -112.006964 269 1149ft 17kts
10-Jan-17 12:36 33.439698 -112.013090 269 1149ft 21kts
10-Jan-17 12:37 33.439697 -112.021105 268 1149ft 27kts
10-Jan-17 12:38 33.439702 -112.028844 270 1149ft 12kts
10-Jan-17 12:39 33.440232 -112.029698 351 1149ft 5kts
10-Jan-17 12:40 33.440830 -112.016234 90 1149ft 136kts
10-Jan-17 12:41 33.439493 -111.960905 94 3119ft 191kts
10-Jan-17 12:42 33.435858 -111.889897 94 5842ft 226kts
10-Jan-17 12:43 33.396754 -111.842498 188 8580ft 234kts
10-Jan-17 12:44 33.354373 -111.891625 270 11470ft 228kts
10-Jan-17 12:45 33.360593 -111.975226 275 13262ft 293kts
10-Jan-17 12:46 33.332429 -112.065102 238 16527ft 309kts
10-Jan-17 12:47 33.280926 -112.149583 239 19257ft 320kts
10-Jan-17 12:48 33.227331 -112.236874 239 21122ft 331kts
10-Jan-17 12:49 33.172772 -112.325501 239 21464ft 334kts
10-Jan-17 12:50 33.116229 -112.417028 239 23568ft 348kts
10-Jan-17 12:51 33.057800 -112.511395 239 25496ft 359kts
10-Jan-17 12:52 32.997683 -112.608300 239 27202ft 369kts
10-Jan-17 12:53 32.951284 -112.715769 262 28549ft 368kts
10-Jan-17 12:54 32.934621 -112.836320 263 30042ft 370kts
10-Jan-17 12:55 32.918100 -112.958224 263 31276ft 377kts
10-Jan-17 12:56 32.901202 -113.082590 264 32135ft 388kts
10-Jan-17 12:57 32.883795 -113.210211 263 32144ft 391kts
10-Jan-17 12:58 32.866210 -113.337847 263 32138ft 391kts
10-Jan-17 12:59 32.848454 -113.465905 263 32141ft 391kts
10-Jan-17 13:00 32.830599 -113.593471 263 32140ft 391kts
10-Jan-17 13:01 32.812413 -113.720995 262 32139ft 392kts
10-Jan-17 13:02 32.793840 -113.848434 263 32138ft 392kts
10-Jan-17 13:03 32.777245 -113.976832 267 32136ft 391kts
10-Jan-17 13:04 32.776065 -114.105368 273 32137ft 389kts
10-Jan-17 13:05 32.781475 -114.233369 273 32139ft 388kts
10-Jan-17 13:06 32.786605 -114.361276 273 32138ft 388kts
10-Jan-17 13:07 32.813592 -114.484383 287 32138ft 387kts
10-Jan-17 13:08 32.847926 -114.606237 286 32138ft 387kts
10-Jan-17 13:09 32.876865 -114.728935 276 32143ft 386kts
10-Jan-17 13:10 32.876351 -114.856876 270 32142ft 387kts
10-Jan-17 13:11 32.873646 -114.984939 270 32144ft 387kts
10-Jan-17 13:12 32.870755 -115.113989 270 31213ft 393kts
10-Jan-17 13:13 32.867711 -115.241893 269 28802ft 380kts
10-Jan-17 13:14 32.862398 -115.365041 262 26403ft 368kts
10-Jan-17 13:15 32.845192 -115.483073 262 24245ft 353kts
10-Jan-17 13:16 32.826536 -115.597139 261 24089ft 353kts
10-Jan-17 13:17 32.807751 -115.711849 261 24099ft 352kts
10-Jan-17 13:18 32.788936 -115.826167 261 24098ft 353kts
10-Jan-17 13:19 32.778132 -115.941411 266 23592ft 346kts
10-Jan-17 13:20 32.770040 -116.051459 266 20942ft 321kts
10-Jan-17 13:21 32.762111 -116.156561 266 17933ft 309kts
10-Jan-17 13:22 32.754612 -116.255423 265 14935ft 293kts
10-Jan-17 13:23 32.746999 -116.352216 264 12028ft 290kts
10-Jan-17 13:24 32.739668 -116.445673 264 9984ft 283kts
10-Jan-17 13:25 32.731883 -116.535824 263 9660ft 269kts
10-Jan-17 13:26 32.723405 -116.624020 263 8375ft 268kts
10-Jan-17 13:27 32.715897 -116.711231 264 7126ft 263kts
10-Jan-17 13:28 32.709266 -116.794924 263 5993ft 249kts
10-Jan-17 13:29 32.689973 -116.873628 250 5302ft 240kts
10-Jan-17 13:30 32.675912 -116.945708 280 3999ft 209kts
10-Jan-17 13:31 32.690236 -117.010658 284 2733ft 194kts
10-Jan-17 13:32 32.703829 -117.067161 285 2119ft 165kts
10-Jan-17 13:33 32.715226 -117.114040 283 1306ft 136kts
10-Jan-17 13:34 32.725665 -117.157228 282 442ft 134kts
10-Jan-17 13:35 32.734920 -117.195435 285 29ft 53kts
10-Jan-17 13:36 32.734912 -117.198666 246 29ft 9kts
10-Jan-17 13:37 32.733356 -117.199071 119 29ft 3kts
10-Jan-17 13:38 32.733338 -117.199032 119 29ft 0kts

Navigation Log

Ident Type
1. KPHX Airport
2. FUTEP Fix
3. AZCRD Fix
4. USEYE Fix
5. MASVE Fix
6. OAKLI Fix
7. GBN Navaid
8. JUDTH Fix
9. MOHAK Fix
10. MOHAK Fix
11. HOGGZ Fix
12. HOGGZ Fix
13. MANRS Fix
14. CBOLA Fix
15. KRMAA Fix
16. SOFII Fix
17. CMPOE Fix
18. HEELX Fix
19. JACKK Fix
20. AZTEK Fix
21. JEEVS Fix
22. LUCKI Fix
23. LYNDI Fix
24. KSAN Airport